createdAt,value
2023-05-19T00:01:48.563Z,5.78
2023-05-19T00:04:15.516Z,6.35
2023-05-19T00:06:42.519Z,8.52
2023-05-19T00:09:10.368Z,7.47
2023-05-19T00:11:38.618Z,6.97
2023-05-19T00:14:07.739Z,6.90
2023-05-19T00:16:34.752Z,8.77
2023-05-19T00:19:03.285Z,7.88
2023-05-19T00:21:31.288Z,8.10
2023-05-19T00:23:58.190Z,8.52
2023-05-19T00:26:26.851Z,8.07
2023-05-19T00:28:53.377Z,5.93
2023-05-19T00:31:19.830Z,6.68
2023-05-19T00:33:46.304Z,6.25
2023-05-19T00:36:12.916Z,6.80
2023-05-19T00:38:39.633Z,6.97
2023-05-19T00:41:07.095Z,8.10
2023-05-19T00:43:36.734Z,8.02
2023-05-19T00:46:03.929Z,7.65
2023-05-19T00:48:30.481Z,5.30
2023-05-19T00:51:06.343Z,8.52
2023-05-19T00:53:34.024Z,9.27
2023-05-19T00:56:01.222Z,13.27
2023-05-19T00:58:30.280Z,7.65
2023-05-19T01:01:06.717Z,12.30
2023-05-19T01:03:35.604Z,10.25
2023-05-19T01:06:05.587Z,12.50
2023-05-19T01:08:33.389Z,9.70
2023-05-19T01:11:00.500Z,8.45
2023-05-19T01:13:30.705Z,8.63
2023-05-19T01:16:32.168Z,7.07
2023-05-19T01:19:20.940Z,9.93
2023-05-19T01:22:13.086Z,6.07
2023-05-19T01:24:54.965Z,12.88
2023-05-19T01:27:48.063Z,8.75
2023-05-19T01:30:43.386Z,6.97
2023-05-19T01:33:14.607Z,6.93
2023-05-19T01:35:43.016Z,7.80
2023-05-19T01:38:12.681Z,8.35
2023-05-19T01:40:41.678Z,8.38
2023-05-19T01:43:10.090Z,7.72
2023-05-19T01:45:36.958Z,8.93
2023-05-19T01:48:04.831Z,7.97
2023-05-19T01:50:33.037Z,7.90
2023-05-19T01:53:00.658Z,7.00
2023-05-19T01:55:27.640Z,8.15
2023-05-19T01:58:06.242Z,6.72
2023-05-19T02:00:32.929Z,6.28
2023-05-19T02:03:26.487Z,6.63
2023-05-19T02:06:16.483Z,6.55
2023-05-19T02:08:47.926Z,12.15
2023-05-19T02:11:39.359Z,6.68
2023-05-19T02:14:14.012Z,8.02
2023-05-19T02:16:46.355Z,8.40
2023-05-19T02:19:27.116Z,8.93
2023-05-19T02:21:54.011Z,8.20
2023-05-19T02:24:22.677Z,6.53
2023-05-19T02:26:53.091Z,13.68
2023-05-19T02:29:20.662Z,7.03
2023-05-19T02:31:47.424Z,6.20
2023-05-19T02:34:14.077Z,14.60
2023-05-19T02:36:45.407Z,6.93
2023-05-19T02:39:12.579Z,9.77
2023-05-19T02:41:39.217Z,9.82
2023-05-19T02:44:05.729Z,7.90
2023-05-19T02:46:32.280Z,7.72
2023-05-19T02:48:59.186Z,7.78
2023-05-19T02:51:25.693Z,6.47
2023-05-19T02:53:52.149Z,7.13
2023-05-19T02:56:18.615Z,9.82
2023-05-19T02:58:45.054Z,5.40
2023-05-19T03:01:12.130Z,8.20
2023-05-19T03:03:38.651Z,6.25
2023-05-19T03:06:08.635Z,5.95
2023-05-19T03:08:36.232Z,7.70
2023-05-19T03:11:03.173Z,6.32
2023-05-19T03:13:29.833Z,14.05
2023-05-19T03:15:58.705Z,5.97
2023-05-19T03:18:26.384Z,9.35
2023-05-19T03:20:56.445Z,6.90
2023-05-19T03:23:23.000Z,8.90
2023-05-19T03:25:49.435Z,7.03
2023-05-19T03:28:15.953Z,8.77
2023-05-19T03:30:42.526Z,6.18
2023-05-19T03:33:09.070Z,8.13
2023-05-19T03:35:35.584Z,7.40
2023-05-19T03:38:02.049Z,7.82
2023-05-19T03:40:28.534Z,8.68
2023-05-19T03:42:55.017Z,7.88
2023-05-19T03:45:21.464Z,7.22
2023-05-19T03:47:48.009Z,10.18
2023-05-19T03:50:14.514Z,7.55
2023-05-19T03:52:46.565Z,5.68
2023-05-19T03:55:14.821Z,8.40
2023-05-19T03:57:43.418Z,9.75
2023-05-19T04:00:28.271Z,10.73
2023-05-19T04:02:55.089Z,5.78
2023-05-19T04:05:25.400Z,8.93
2023-05-19T04:07:55.630Z,7.00
2023-05-19T04:10:25.323Z,19.23
2023-05-19T04:12:52.267Z,4.60
2023-05-19T04:15:19.313Z,5.57
2023-05-19T04:17:46.525Z,7.22
2023-05-19T04:20:13.519Z,8.43
2023-05-19T04:22:39.994Z,6.75
2023-05-19T04:25:07.530Z,5.35
2023-05-19T04:27:36.685Z,7.07
2023-05-19T04:30:04.062Z,10.40
2023-05-19T04:32:31.017Z,8.18
2023-05-19T04:34:58.897Z,8.90
2023-05-19T04:37:26.407Z,9.32
2023-05-19T04:39:53.066Z,8.82
2023-05-19T04:42:19.785Z,8.93
2023-05-19T04:44:49.161Z,5.25
2023-05-19T04:47:15.916Z,10.65
2023-05-19T04:49:43.109Z,7.32
2023-05-19T04:52:11.110Z,7.55
2023-05-19T04:54:38.697Z,7.88
2023-05-19T04:57:05.934Z,8.48
2023-05-19T04:59:32.651Z,10.65
2023-05-19T05:01:59.185Z,7.32
2023-05-19T05:04:25.986Z,6.82
2023-05-19T05:06:52.442Z,10.52
2023-05-19T05:09:19.984Z,6.65
2023-05-19T05:11:46.714Z,12.57
2023-05-19T05:14:13.508Z,10.52
2023-05-19T05:16:40.906Z,6.45
2023-05-19T05:19:07.802Z,7.78
2023-05-19T05:21:34.722Z,9.38
2023-05-19T05:24:01.541Z,7.88
2023-05-19T05:26:31.687Z,6.75
2023-05-19T05:28:58.172Z,13.07
2023-05-19T05:31:24.668Z,7.07
2023-05-19T05:33:51.214Z,5.78
2023-05-19T05:36:17.701Z,9.63
2023-05-19T05:38:44.268Z,12.25
2023-05-19T05:41:10.760Z,11.30
2023-05-19T05:43:37.254Z,11.27
2023-05-19T05:46:03.812Z,8.60
2023-05-19T05:48:30.631Z,9.40
2023-05-19T05:50:57.990Z,9.32
2023-05-19T05:53:26.792Z,8.50
2023-05-19T05:55:53.667Z,10.05
2023-05-19T05:58:21.212Z,13.13
2023-05-19T06:00:51.397Z,9.93
2023-05-19T06:03:17.982Z,15.25
2023-05-19T06:05:44.685Z,12.32
2023-05-19T06:08:11.263Z,8.88
2023-05-19T06:10:39.061Z,11.23
2023-05-19T06:13:05.617Z,10.00
2023-05-19T06:15:32.271Z,13.00
2023-05-19T06:17:59.297Z,9.93
2023-05-19T06:20:26.293Z,9.50
2023-05-19T06:22:52.798Z,9.45
2023-05-19T06:25:20.565Z,10.27
2023-05-19T06:27:47.097Z,7.80
2023-05-19T06:30:13.833Z,7.88
2023-05-19T06:32:40.587Z,13.77
2023-05-19T06:35:07.460Z,12.38
2023-05-19T06:37:33.904Z,14.13
2023-05-19T06:40:00.477Z,12.07
2023-05-19T06:42:26.940Z,10.85
2023-05-19T06:44:53.533Z,9.88
2023-05-19T06:47:20.049Z,10.02
2023-05-19T06:49:50.510Z,11.02
2023-05-19T06:52:17.260Z,8.88
2023-05-19T06:54:43.796Z,8.18
2023-05-19T06:57:10.272Z,6.78
2023-05-19T06:59:37.575Z,10.90
2023-05-19T07:02:04.755Z,12.55
2023-05-19T07:04:31.310Z,11.48
2023-05-19T07:06:57.774Z,18.95
2023-05-19T07:09:24.413Z,9.95
2023-05-19T07:11:50.978Z,9.68
2023-05-19T07:14:18.358Z,10.52
2023-05-19T07:16:44.989Z,8.40
2023-05-19T07:19:11.557Z,9.60
2023-05-19T07:21:38.286Z,9.65
2023-05-19T07:24:04.805Z,11.30
2023-05-19T07:26:31.235Z,15.60
2023-05-19T07:28:57.872Z,14.27
2023-05-19T07:31:24.466Z,9.45
2023-05-19T07:33:52.294Z,13.60
2023-05-19T07:36:21.001Z,14.38
2023-05-19T07:38:47.680Z,18.50
2023-05-19T07:41:14.449Z,9.90
2023-05-19T07:43:42.656Z,11.82
2023-05-19T07:46:09.179Z,9.30
2023-05-19T07:48:35.973Z,9.35
2023-05-19T07:51:02.637Z,8.85
2023-05-19T07:53:29.118Z,12.68
2023-05-19T07:55:58.399Z,11.40
2023-05-19T07:58:25.432Z,9.25
2023-05-19T08:00:53.314Z,11.05
2023-05-19T08:03:20.805Z,11.55
2023-05-19T08:05:47.682Z,8.75
2023-05-19T08:08:16.604Z,10.15
2023-05-19T08:10:43.495Z,13.73
2023-05-19T08:13:09.962Z,10.55
2023-05-19T08:15:37.022Z,8.95
2023-05-19T08:18:05.302Z,10.55
2023-05-19T08:20:32.530Z,9.45
2023-05-19T08:22:59.351Z,16.73
2023-05-19T08:25:25.826Z,11.55
2023-05-19T08:27:52.265Z,8.57
2023-05-19T08:30:18.826Z,9.65
2023-05-19T08:32:45.503Z,12.25
2023-05-19T08:35:12.157Z,11.43
2023-05-19T08:37:38.757Z,10.55
2023-05-19T08:40:06.202Z,9.48
2023-05-19T08:42:33.863Z,11.20
2023-05-19T08:45:02.085Z,10.10
2023-05-19T08:47:29.034Z,11.38
2023-05-19T08:50:05.108Z,7.28
2023-05-19T08:52:47.881Z,9.75
2023-05-19T08:55:41.102Z,9.98
2023-05-19T08:58:08.639Z,8.38
2023-05-19T09:00:35.794Z,13.45
2023-05-19T09:03:17.364Z,11.98
2023-05-19T09:05:46.661Z,10.20
2023-05-19T09:08:13.861Z,9.95
2023-05-19T09:10:40.331Z,9.63
2023-05-19T09:13:06.948Z,10.43
2023-05-19T09:15:36.708Z,14.40
2023-05-19T09:18:08.962Z,7.75
2023-05-19T09:20:43.862Z,13.50
2023-05-19T09:23:17.815Z,12.25
2023-05-19T09:25:51.322Z,12.80
2023-05-19T09:28:23.747Z,11.63
2023-05-19T09:30:59.291Z,10.32
2023-05-19T09:33:25.924Z,11.13
2023-05-19T09:35:55.207Z,11.93
2023-05-19T09:38:23.673Z,12.20
2023-05-19T09:40:50.450Z,14.10
2023-05-19T09:43:16.956Z,14.35
2023-05-19T09:45:43.572Z,9.50
2023-05-19T09:48:10.190Z,12.63
2023-05-19T09:50:37.407Z,10.68
2023-05-19T09:53:04.077Z,9.80
2023-05-19T09:55:51.115Z,8.85
2023-05-19T09:58:21.566Z,8.93
2023-05-19T10:00:48.527Z,8.85
2023-05-19T10:03:17.662Z,8.43
2023-05-19T10:05:45.229Z,9.60
2023-05-19T10:08:12.439Z,8.55
2023-05-19T10:10:39.084Z,12.57
2023-05-19T10:13:06.381Z,8.43
2023-05-19T10:15:36.112Z,7.88
2023-05-19T10:18:06.998Z,11.32
2023-05-19T10:20:35.207Z,10.95
2023-05-19T10:23:03.175Z,12.48
2023-05-19T10:25:34.549Z,12.45
2023-05-19T10:28:08.907Z,8.55
2023-05-19T10:30:44.882Z,9.93
2023-05-19T10:33:17.286Z,10.70
2023-05-19T10:36:21.376Z,11.07
2023-05-19T10:38:58.815Z,11.63
2023-05-19T10:41:45.005Z,12.38
2023-05-19T10:44:39.422Z,14.63
2023-05-19T10:47:12.045Z,10.25
2023-05-19T10:49:39.736Z,9.55
2023-05-19T10:52:21.450Z,9.80
2023-05-19T10:54:47.994Z,10.98
2023-05-19T10:57:17.593Z,9.43
2023-05-19T10:59:47.397Z,9.40
2023-05-19T11:02:43.180Z,10.00
2023-05-19T11:05:14.444Z,12.32
2023-05-19T11:07:43.617Z,12.05
2023-05-19T11:10:10.650Z,15.55
2023-05-19T11:12:52.053Z,10.73
2023-05-19T11:15:19.211Z,10.70
2023-05-19T11:17:48.741Z,11.45
2023-05-19T11:20:26.346Z,10.35
2023-05-19T11:23:09.416Z,12.65
2023-05-19T11:25:49.397Z,10.65
2023-05-19T11:28:21.427Z,11.27
2023-05-19T11:30:52.187Z,8.63
2023-05-19T11:35:53.843Z,11.65
2023-05-19T11:38:23.713Z,9.05
2023-05-19T11:40:53.382Z,11.77
2023-05-19T11:43:22.717Z,11.45
2023-05-19T11:45:50.250Z,12.77
2023-05-19T11:48:17.557Z,15.27
2023-05-19T11:50:46.060Z,10.70
2023-05-19T11:53:20.672Z,11.00
2023-05-19T11:55:56.485Z,10.98
2023-05-19T11:58:27.811Z,11.23
2023-05-19T12:00:55.216Z,10.05
2023-05-19T12:03:26.400Z,13.00
2023-05-19T12:05:53.704Z,11.20
2023-05-19T12:08:21.488Z,11.85
2023-05-19T12:10:51.876Z,15.20
2023-05-19T12:13:19.618Z,13.03
2023-05-19T12:15:46.346Z,17.00
2023-05-19T12:18:12.871Z,12.85
2023-05-19T12:20:39.556Z,11.15
2023-05-19T12:23:06.413Z,12.82
2023-05-19T12:25:33.176Z,13.23
2023-05-19T12:28:05.639Z,11.35
2023-05-19T12:30:33.369Z,13.68
2023-05-19T12:33:02.012Z,10.98
2023-05-19T12:35:30.595Z,9.95
2023-05-19T12:37:57.804Z,14.05
2023-05-19T12:40:24.595Z,13.38
2023-05-19T12:42:53.271Z,11.38
2023-05-19T12:45:22.265Z,10.82
2023-05-19T12:47:49.634Z,13.63
2023-05-19T12:50:16.196Z,13.90
2023-05-19T12:52:46.516Z,11.88
2023-05-19T12:55:17.372Z,11.68
2023-05-19T12:57:48.719Z,13.68
2023-05-19T13:00:28.531Z,13.18
2023-05-19T13:03:01.836Z,15.25
2023-05-19T13:05:29.928Z,13.40
2023-05-19T13:08:13.281Z,14.07
2023-05-19T13:10:56.709Z,16.15
2023-05-19T13:13:23.219Z,11.85
2023-05-19T13:15:49.683Z,11.30
2023-05-19T13:18:17.896Z,16.42
2023-05-19T13:20:45.592Z,11.38
2023-05-19T13:23:13.519Z,12.70
2023-05-19T13:25:41.499Z,15.57
2023-05-19T13:28:08.999Z,13.32
2023-05-19T13:30:38.429Z,11.52
2023-05-19T13:33:05.189Z,12.38
2023-05-19T13:35:36.963Z,14.80
2023-05-19T13:38:09.473Z,16.45
2023-05-19T13:40:36.661Z,13.48
2023-05-19T13:43:04.229Z,13.07
2023-05-19T13:45:30.875Z,12.07
2023-05-19T13:47:57.428Z,14.98
2023-05-19T13:50:24.034Z,14.88
2023-05-19T13:52:50.596Z,13.93
2023-05-19T13:55:17.425Z,10.02
2023-05-19T13:57:44.342Z,11.30
2023-05-19T14:00:11.463Z,10.93
2023-05-19T14:02:38.244Z,11.55
2023-05-19T14:05:06.553Z,10.10
2023-05-19T14:07:34.789Z,10.25
2023-05-19T14:10:02.836Z,8.93
2023-05-19T14:12:38.005Z,9.73
2023-05-19T14:15:14.086Z,9.93
2023-05-19T14:17:40.903Z,12.98
2023-05-19T14:20:08.420Z,9.82
2023-05-19T14:22:35.203Z,8.90
2023-05-19T14:25:02.417Z,8.30
2023-05-19T14:27:29.077Z,8.85
2023-05-19T14:29:55.615Z,7.47
2023-05-19T14:32:22.368Z,8.48
2023-05-19T14:34:52.754Z,8.02
2023-05-19T14:37:20.187Z,8.98
2023-05-19T14:39:46.882Z,6.88
2023-05-19T14:42:13.447Z,7.05
2023-05-19T14:44:39.922Z,10.45
2023-05-19T14:47:07.385Z,6.35
2023-05-19T14:49:34.042Z,7.85
2023-05-19T14:52:00.714Z,10.90
2023-05-19T14:54:27.185Z,8.27
2023-05-19T14:56:53.681Z,5.93
2023-05-19T14:59:21.623Z,6.13
2023-05-19T15:01:48.186Z,8.32
2023-05-19T15:04:14.889Z,7.50
2023-05-19T15:06:41.666Z,6.90
2023-05-19T15:09:08.402Z,5.78
2023-05-19T15:11:34.970Z,6.80
2023-05-19T15:14:01.544Z,6.35
2023-05-19T15:16:28.310Z,5.93
2023-05-19T15:18:54.941Z,6.88
2023-05-19T15:21:21.405Z,7.85
2023-05-19T15:23:47.879Z,4.97
2023-05-19T15:26:14.398Z,7.28
2023-05-19T15:28:41.077Z,7.85
2023-05-19T15:31:07.775Z,8.52
2023-05-19T15:33:34.869Z,9.80
2023-05-19T15:36:01.344Z,11.50
2023-05-19T15:38:29.837Z,8.80
2023-05-19T15:40:56.647Z,6.63
2023-05-19T15:43:23.238Z,9.88
2023-05-19T15:45:54.903Z,7.72
2023-05-19T15:48:21.452Z,9.55
2023-05-19T15:50:48.788Z,7.70
2023-05-19T15:53:15.411Z,7.93
2023-05-19T15:55:41.902Z,9.40
2023-05-19T15:58:08.852Z,9.93
2023-05-19T16:00:35.534Z,6.50
2023-05-19T16:03:02.316Z,7.28
2023-05-19T16:05:28.879Z,7.70
2023-05-19T16:07:55.321Z,7.20
2023-05-19T16:10:21.838Z,8.90
2023-05-19T16:12:48.310Z,12.00
2023-05-19T16:15:14.865Z,10.50
2023-05-19T16:17:41.556Z,18.77
2023-05-19T16:20:20.024Z,7.00
2023-05-19T16:22:46.499Z,10.30
2023-05-19T16:25:13.189Z,8.90
2023-05-19T16:27:39.705Z,9.63
2023-05-19T16:30:07.040Z,9.23
2023-05-19T16:32:33.941Z,9.52
2023-05-19T16:35:00.681Z,9.80
2023-05-19T16:37:27.144Z,10.15
2023-05-19T16:39:53.636Z,9.50
2023-05-19T16:42:20.137Z,12.63
2023-05-19T16:44:46.851Z,13.73
2023-05-19T16:47:13.457Z,10.50
2023-05-19T16:49:40.856Z,8.25
2023-05-19T16:52:08.069Z,8.93
2023-05-19T16:54:34.827Z,10.10
2023-05-19T16:57:01.415Z,9.95
2023-05-19T16:59:27.901Z,12.73
2023-05-19T17:01:55.962Z,11.68
2023-05-19T17:04:22.846Z,12.55
2023-05-19T17:06:49.367Z,14.27
2023-05-19T17:09:15.846Z,23.92
2023-05-19T17:11:42.303Z,11.38
2023-05-19T17:14:09.205Z,12.20
2023-05-19T17:16:36.753Z,16.23
2023-05-19T17:19:04.160Z,11.80
2023-05-19T17:21:31.714Z,13.93
2023-05-19T17:23:58.178Z,11.38
2023-05-19T17:26:24.620Z,17.20
2023-05-19T17:28:51.248Z,11.75
2023-05-19T17:31:18.376Z,12.48
2023-05-19T17:33:44.932Z,9.68
2023-05-19T17:36:11.662Z,8.85
2023-05-19T17:38:40.399Z,8.38
2023-05-19T17:41:11.041Z,9.10
2023-05-19T17:43:38.226Z,9.82
2023-05-19T17:46:05.361Z,9.07
2023-05-19T17:48:32.078Z,11.90
2023-05-19T17:50:59.236Z,9.77
2023-05-19T17:53:26.245Z,9.73
2023-05-19T17:55:58.277Z,9.65
2023-05-19T17:58:25.757Z,9.07
2023-05-19T18:00:52.523Z,9.65
2023-05-19T18:03:19.715Z,10.02
2023-05-19T18:05:47.201Z,9.55
2023-05-19T18:08:14.785Z,10.25
2023-05-19T18:10:42.697Z,10.23
2023-05-19T18:13:18.308Z,9.75
2023-05-19T18:15:44.787Z,10.38
2023-05-19T18:18:11.725Z,9.00
2023-05-19T18:20:39.363Z,11.52
2023-05-19T18:23:06.060Z,9.80
2023-05-19T18:25:32.513Z,9.35
2023-05-19T18:27:59.028Z,7.95
2023-05-19T18:30:25.576Z,7.95
2023-05-19T18:32:52.118Z,12.15
2023-05-19T18:35:20.727Z,10.65
2023-05-19T18:37:47.250Z,9.13
2023-05-19T18:40:13.710Z,8.73
2023-05-19T18:42:40.180Z,7.90
2023-05-19T18:45:07.112Z,10.63
2023-05-19T18:47:33.557Z,11.55
2023-05-19T18:50:00.062Z,10.50
2023-05-19T18:52:28.246Z,11.80
2023-05-19T18:54:55.043Z,12.30
2023-05-19T18:57:21.509Z,8.98
2023-05-19T18:59:47.954Z,9.98
2023-05-19T19:02:15.162Z,11.95
2023-05-19T19:04:41.653Z,11.85
2023-05-19T19:07:08.125Z,11.23
2023-05-19T19:09:34.627Z,8.63
2023-05-19T19:12:01.059Z,12.40
2023-05-19T19:14:27.497Z,15.20
2023-05-19T19:16:54.044Z,15.50
2023-05-19T19:19:20.684Z,11.52
2023-05-19T19:21:47.135Z,12.65
2023-05-19T19:24:13.721Z,10.20
2023-05-19T19:26:40.358Z,13.05
2023-05-19T19:29:06.832Z,12.52
2023-05-19T19:31:33.403Z,10.55
2023-05-19T19:34:03.610Z,10.70
2023-05-19T19:36:30.126Z,8.63
2023-05-19T19:38:56.680Z,11.75
2023-05-19T19:41:23.201Z,10.38
2023-05-19T19:43:50.873Z,10.82
2023-05-19T19:46:17.401Z,11.70
2023-05-19T19:48:43.971Z,9.73
2023-05-19T19:51:10.420Z,14.80
2023-05-19T19:53:36.917Z,11.45
2023-05-19T19:56:04.885Z,9.32
2023-05-19T19:58:31.354Z,10.73
2023-05-19T20:01:03.078Z,12.68
2023-05-19T20:03:29.920Z,11.60
2023-05-19T20:05:56.903Z,12.57
2023-05-19T20:08:24.557Z,12.27
2023-05-19T20:10:51.220Z,13.57
2023-05-19T20:13:18.980Z,12.73
2023-05-19T20:15:46.876Z,12.43
2023-05-19T20:18:13.488Z,9.32
2023-05-19T20:20:40.887Z,10.80
2023-05-19T20:23:07.995Z,11.50
2023-05-19T20:25:53.666Z,10.70
2023-05-19T20:28:28.098Z,14.20
2023-05-19T20:30:54.565Z,18.55
2023-05-19T20:33:21.216Z,13.50
2023-05-19T20:35:47.732Z,14.35
2023-05-19T20:38:14.223Z,12.25
2023-05-19T20:40:40.811Z,12.50
2023-05-19T20:43:07.324Z,11.50
2023-05-19T20:45:34.069Z,15.45
2023-05-19T20:48:02.649Z,14.23
2023-05-19T20:50:29.170Z,19.52
2023-05-19T20:52:55.655Z,12.60
2023-05-19T20:55:22.100Z,14.02
2023-05-19T20:57:48.650Z,14.10
2023-05-19T21:00:15.249Z,17.02
2023-05-19T21:02:41.724Z,16.08
2023-05-19T21:05:08.524Z,14.00
2023-05-19T21:07:35.133Z,20.98
2023-05-19T21:10:01.621Z,13.90
2023-05-19T21:12:33.725Z,16.10
2023-05-19T21:15:01.397Z,13.55
2023-05-19T21:17:27.986Z,16.55
2023-05-19T21:19:57.806Z,14.40
2023-05-19T21:22:25.465Z,16.50
2023-05-19T21:24:52.172Z,24.17
2023-05-19T21:27:19.109Z,17.15
2023-05-19T21:29:46.306Z,18.02
2023-05-19T21:32:13.517Z,14.32
2023-05-19T21:34:40.131Z,15.82
2023-05-19T21:37:06.992Z,14.55
2023-05-19T21:39:33.415Z,13.82
2023-05-19T21:41:59.905Z,15.65
2023-05-19T21:44:26.703Z,15.90
2023-05-19T21:46:54.216Z,15.20
2023-05-19T21:49:21.056Z,17.67
2023-05-19T21:51:48.413Z,19.77
2023-05-19T21:54:15.526Z,18.08
2023-05-19T21:56:43.065Z,16.30
2023-05-19T21:59:12.023Z,15.32
2023-05-19T22:01:40.488Z,19.65
2023-05-19T22:04:10.015Z,16.98
2023-05-19T22:06:36.477Z,17.77
2023-05-19T22:09:03.319Z,20.05
2023-05-19T22:11:29.748Z,21.33
2023-05-19T22:13:56.327Z,20.42
2023-05-19T22:16:24.289Z,18.05
2023-05-19T22:18:51.133Z,27.38
2023-05-19T22:21:17.894Z,22.08
2023-05-19T22:23:44.766Z,20.23
2023-05-19T22:26:11.248Z,19.80
2023-05-19T22:28:40.731Z,21.45
2023-05-19T22:31:07.288Z,20.58
2023-05-19T22:33:33.932Z,23.27
2023-05-19T22:36:00.817Z,21.02
2023-05-19T22:38:27.316Z,20.98
2023-05-19T22:40:53.978Z,19.08
2023-05-19T22:43:20.458Z,18.15
2023-05-19T22:45:47.154Z,21.27
2023-05-19T22:48:13.837Z,22.40
2023-05-19T22:50:40.608Z,19.45
2023-05-19T22:53:07.092Z,23.20
2023-05-19T22:55:33.808Z,20.45
2023-05-19T22:58:03.551Z,19.80
2023-05-19T23:00:30.076Z,19.98
2023-05-19T23:02:58.184Z,18.80
2023-05-19T23:05:24.983Z,21.83
2023-05-19T23:07:51.525Z,22.35
2023-05-19T23:10:18.150Z,25.75
2023-05-19T23:12:45.462Z,32.47
2023-05-19T23:15:12.031Z,23.63
2023-05-19T23:17:38.542Z,30.40
2023-05-19T23:20:05.774Z,23.25
2023-05-19T23:22:32.328Z,27.42
2023-05-19T23:24:58.878Z,25.70
2023-05-19T23:27:25.339Z,24.92
2023-05-19T23:29:51.781Z,24.48
2023-05-19T23:32:18.328Z,25.50
2023-05-19T23:34:47.205Z,24.70
2023-05-19T23:37:13.699Z,25.17
2023-05-19T23:39:40.355Z,26.48
2023-05-19T23:42:06.845Z,23.60
2023-05-19T23:44:33.281Z,25.17
2023-05-19T23:46:59.806Z,31.40
2023-05-19T23:49:26.475Z,23.20
2023-05-19T23:51:53.006Z,27.88
2023-05-19T23:54:19.496Z,21.33
2023-05-19T23:56:46.113Z,22.70
2023-05-19T23:59:12.594Z,26.02
